createdAt,value
2022-10-21T05:30:54.886Z,15.40
2022-10-21T05:33:57.946Z,15.40
2022-10-21T05:36:59.642Z,15.50
2022-10-21T05:40:01.304Z,15.50
2022-10-21T05:43:03.226Z,15.40
2022-10-21T05:46:05.094Z,15.30
2022-10-21T05:49:07.604Z,15.30
2022-10-21T05:52:14.405Z,15.20
2022-10-21T05:55:18.571Z,15.20
2022-10-21T05:58:21.732Z,15.20
2022-10-21T06:01:25.521Z,15.30
2022-10-21T06:04:32.895Z,15.30
2022-10-21T06:07:38.370Z,15.30
2022-10-21T06:10:40.627Z,15.30
2022-10-21T06:49:52.478Z,14.40
2022-10-21T06:52:54.781Z,14.60
2022-10-21T06:56:05.778Z,14.80
2022-10-21T06:59:07.665Z,15.00
2022-10-21T07:02:10.477Z,15.00
2022-10-21T07:05:13.635Z,15.10
2022-10-21T07:08:16.982Z,15.10
2022-10-21T07:11:19.920Z,15.10
2022-10-21T07:14:21.734Z,15.10
2022-10-21T07:17:23.709Z,15.10
2022-10-21T07:20:25.678Z,15.10
2022-10-21T07:23:27.642Z,15.10
2022-10-21T07:26:32.044Z,15.20
2022-10-21T07:29:33.835Z,15.20
2022-10-21T07:32:35.816Z,15.10
2022-10-21T07:35:37.912Z,15.20
2022-10-21T07:38:41.333Z,15.20
2022-10-21T07:41:47.966Z,15.10
2022-10-21T07:44:53.197Z,15.20
2022-10-21T07:47:58.038Z,15.20
2022-10-21T07:51:08.645Z,15.20
2022-10-21T07:54:10.695Z,15.30
2022-10-21T07:57:12.644Z,15.30
2022-10-21T08:00:23.683Z,15.30
2022-10-21T08:03:26.456Z,15.40
2022-10-21T08:06:46.436Z,15.50
2022-10-21T08:09:50.983Z,15.50
2022-10-21T08:12:54.560Z,15.40
2022-10-21T08:15:59.494Z,15.50
2022-10-21T08:19:02.367Z,15.60
2022-10-21T08:22:05.251Z,15.60
2022-10-21T08:25:08.655Z,15.70
2022-10-21T08:28:10.980Z,15.70
2022-10-21T08:31:16.496Z,15.80
2022-10-21T08:34:18.963Z,15.80
2022-10-21T08:37:24.914Z,15.80
2022-10-21T08:40:36.742Z,15.70
2022-10-21T08:43:47.674Z,15.80
2022-10-21T08:46:58.199Z,15.90
2022-10-21T08:50:12.508Z,16.00
2022-10-21T08:53:24.897Z,16.00
2022-10-21T08:56:30.463Z,15.80
2022-10-21T08:59:33.831Z,15.70
2022-10-21T09:03:04.171Z,15.70
2022-10-21T09:06:19.867Z,15.80
2022-10-21T09:09:41.462Z,15.90
2022-10-21T09:13:03.450Z,15.70
2022-10-21T09:16:14.606Z,15.70
2022-10-21T09:19:51.791Z,15.60
2022-10-21T09:23:26.355Z,15.50
2022-10-21T09:26:42.130Z,15.50
2022-10-21T09:29:47.782Z,15.60
2022-10-21T09:33:02.557Z,15.60
2022-10-21T09:36:13.945Z,15.60
2022-10-21T09:39:25.844Z,15.80
2022-10-21T09:42:47.364Z,16.10
2022-10-21T09:45:49.973Z,16.20
2022-10-21T09:52:20.859Z,16.50
2022-10-21T09:55:24.301Z,16.60
2022-10-21T09:58:30.346Z,16.70
2022-10-21T10:01:32.747Z,16.90
2022-10-21T10:04:37.227Z,16.90
2022-10-21T10:07:40.201Z,16.90
2022-10-21T10:10:42.174Z,17.00
2022-10-21T10:13:50.220Z,17.00
2022-10-21T10:16:52.959Z,16.90
2022-10-21T10:20:18.374Z,17.00
2022-10-21T10:23:20.363Z,17.10
2022-10-21T10:26:29.895Z,17.20
2022-10-21T10:29:33.896Z,17.30
2022-10-21T10:32:36.089Z,17.20
2022-10-21T10:35:39.256Z,17.50
2022-10-21T10:38:55.789Z,17.60
2022-10-21T10:41:58.646Z,17.70
2022-10-21T10:45:06.988Z,17.70
2022-10-21T10:48:23.182Z,17.90
2022-10-21T10:51:32.768Z,18.00
2022-10-21T10:54:35.505Z,18.00
2022-10-21T10:57:45.867Z,18.10
2022-10-21T11:01:05.517Z,18.20
2022-10-21T11:04:23.553Z,18.30
2022-10-21T11:07:49.648Z,18.30
2022-10-21T11:10:59.417Z,18.10
2022-10-21T11:14:01.288Z,18.20
2022-10-21T11:17:18.909Z,18.10
2022-10-21T11:20:42.922Z,18.20
2022-10-21T11:24:13.512Z,18.20
2022-10-21T11:27:45.069Z,18.20
2022-10-21T11:31:26.605Z,18.00
2022-10-21T11:34:43.725Z,18.00
2022-10-21T11:38:19.416Z,18.00
2022-10-21T11:41:32.546Z,18.40
2022-10-21T11:45:00.997Z,18.60
2022-10-21T11:48:29.509Z,18.50
2022-10-21T11:51:43.916Z,18.50
2022-10-21T11:55:10.078Z,18.40
2022-10-21T11:58:53.043Z,18.40
2022-10-21T12:02:21.094Z,18.40
2022-10-21T12:05:47.335Z,18.50
2022-10-21T12:08:57.763Z,18.70
2022-10-21T12:12:12.082Z,18.40
2022-10-21T12:15:19.453Z,18.50
2022-10-21T12:18:24.003Z,18.60
2022-10-21T12:21:29.374Z,18.40
2022-10-21T12:24:31.337Z,18.40
2022-10-21T12:28:13.199Z,18.30
2022-10-21T12:31:45.614Z,18.40
2022-10-21T12:34:48.397Z,18.40
2022-10-21T12:37:51.314Z,18.60
2022-10-21T12:41:28.380Z,18.60
2022-10-21T12:44:30.456Z,18.60
2022-10-21T12:47:37.301Z,18.40
2022-10-21T12:50:39.294Z,18.20
2022-10-21T12:53:48.201Z,18.00
2022-10-21T12:56:58.716Z,18.00
2022-10-21T13:00:30.829Z,17.90
2022-10-21T13:03:55.017Z,18.00
2022-10-21T13:06:58.573Z,18.00
2022-10-21T13:10:00.298Z,18.10
2022-10-21T13:13:28.390Z,18.00
2022-10-21T13:16:36.919Z,18.00
2022-10-21T13:19:38.613Z,17.90
2022-10-21T13:22:42.838Z,17.90
2022-10-21T13:25:44.646Z,18.10
2022-10-21T13:29:12.690Z,18.10
2022-10-21T13:32:17.930Z,18.00
2022-10-21T13:35:20.064Z,18.10
2022-10-21T13:38:29.586Z,18.10
2022-10-21T13:41:31.488Z,18.00
2022-10-21T13:44:39.541Z,17.90
2022-10-21T13:47:41.458Z,17.70
2022-10-21T13:50:47.778Z,17.80
2022-10-21T13:53:54.689Z,17.70
2022-10-21T13:56:56.471Z,17.60
2022-10-21T14:00:07.534Z,17.50
2022-10-21T14:03:17.917Z,17.50
2022-10-21T14:06:42.926Z,17.70
2022-10-21T14:09:48.068Z,17.80
2022-10-21T14:12:50.131Z,17.90
2022-10-21T14:15:52.633Z,17.80
2022-10-21T14:18:54.548Z,17.70
2022-10-21T14:21:58.981Z,17.70
2022-10-21T14:25:02.409Z,17.50
2022-10-21T14:28:05.150Z,17.50
2022-10-21T14:31:11.999Z,17.40
2022-10-21T14:34:32.542Z,17.40
2022-10-21T14:37:55.918Z,17.40
2022-10-21T14:41:00.566Z,17.30
2022-10-21T14:44:13.388Z,17.20
2022-10-21T14:47:19.672Z,17.20
2022-10-21T14:50:23.969Z,17.00
2022-10-21T14:53:27.678Z,17.00
2022-10-21T14:56:34.306Z,17.00
2022-10-21T14:59:41.944Z,17.00
2022-10-21T15:02:44.588Z,17.00
2022-10-21T15:05:49.247Z,17.00
2022-10-21T15:09:17.480Z,17.00
2022-10-21T15:12:19.661Z,16.90
2022-10-21T15:15:43.217Z,16.90
2022-10-21T15:18:47.671Z,16.90
2022-10-21T15:21:55.136Z,16.90
2022-10-21T15:25:08.119Z,16.90
2022-10-21T15:28:13.390Z,16.90
2022-10-21T15:31:19.402Z,16.80
2022-10-21T15:34:21.366Z,16.70
2022-10-21T15:37:23.232Z,16.70
2022-10-21T15:40:25.079Z,16.70
2022-10-21T15:43:26.997Z,16.60
2022-10-21T15:46:30.480Z,16.60
2022-10-21T15:49:37.927Z,16.60
2022-10-21T15:52:39.738Z,16.60
2022-10-21T15:55:42.532Z,16.70
2022-10-21T15:58:44.357Z,16.60
